sensor_id;sensor_type;location;lat;lon;timestamp;temperature;humidity
41882;DHT22;27562;47.524;12.404;2024-02-14T00:00:17;-0.70;99.90
41882;DHT22;27562;47.524;12.404;2024-02-14T00:02:46;-0.70;99.90
41882;DHT22;27562;47.524;12.404;2024-02-14T00:05:15;-0.70;99.90
41882;DHT22;27562;47.524;12.404;2024-02-14T00:07:41;-0.70;99.90
41882;DHT22;27562;47.524;12.404;2024-02-14T00:10:07;-0.80;99.90
41882;DHT22;27562;47.524;12.404;2024-02-14T00:12:33;-0.80;99.90
41882;DHT22;27562;47.524;12.404;2024-02-14T00:15:00;-0.80;99.90
41882;DHT22;27562;47.524;12.404;2024-02-14T00:17:26;-0.80;99.90
41882;DHT22;27562;47.524;12.404;2024-02-14T00:19:52;-0.80;99.90
41882;DHT22;27562;47.524;12.404;2024-02-14T00:22:18;-0.80;99.90
41882;DHT22;27562;47.524;12.404;2024-02-14T00:24:43;-0.80;99.90
41882;DHT22;27562;47.524;12.404;2024-02-14T00:27:09;-0.80;99.90
41882;DHT22;27562;47.524;12.404;2024-02-14T00:29:35;-0.80;99.90
41882;DHT22;27562;47.524;12.404;2024-02-14T00:32:01;-0.80;99.90
41882;DHT22;27562;47.524;12.404;2024-02-14T00:34:27;-0.80;99.90
41882;DHT22;27562;47.524;12.404;2024-02-14T00:36:53;-0.90;99.90
41882;DHT22;27562;47.524;12.404;2024-02-14T00:39:18;-0.90;99.90
41882;DHT22;27562;47.524;12.404;2024-02-14T00:41:46;-0.90;99.90
41882;DHT22;27562;47.524;12.404;2024-02-14T00:44:13;-1.00;99.90
41882;DHT22;27562;47.524;12.404;2024-02-14T00:46:42;-1.00;99.90
41882;DHT22;27562;47.524;12.404;2024-02-14T00:49:09;-1.00;99.90
41882;DHT22;27562;47.524;12.404;2024-02-14T00:51:35;-1.00;99.90
41882;DHT22;27562;47.524;12.404;2024-02-14T00:54:03;-1.00;99.90
41882;DHT22;27562;47.524;12.404;2024-02-14T00:56:29;-1.00;99.90
41882;DHT22;27562;47.524;12.404;2024-02-14T00:58:54;-1.00;99.90
41882;DHT22;27562;47.524;12.404;2024-02-14T01:01:20;-1.00;99.90
41882;DHT22;27562;47.524;12.404;2024-02-14T01:03:46;-1.00;99.90
41882;DHT22;27562;47.524;12.404;2024-02-14T01:06:12;-1.00;99.90
41882;DHT22;27562;47.524;12.404;2024-02-14T01:08:40;-1.00;99.90
41882;DHT22;27562;47.524;12.404;2024-02-14T01:11:07;-1.00;99.90
41882;DHT22;27562;47.524;12.404;2024-02-14T01:13:33;-1.10;99.90
41882;DHT22;27562;47.524;12.404;2024-02-14T01:15:58;-1.10;99.90
41882;DHT22;27562;47.524;12.404;2024-02-14T01:18:24;-1.00;99.90
41882;DHT22;27562;47.524;12.404;2024-02-14T01:20:50;-1.00;99.90
41882;DHT22;27562;47.524;12.404;2024-02-14T01:23:16;-1.00;99.90
41882;DHT22;27562;47.524;12.404;2024-02-14T01:25:41;-1.00;99.90
41882;DHT22;27562;47.524;12.404;2024-02-14T01:28:10;-1.00;99.90
41882;DHT22;27562;47.524;12.404;2024-02-14T01:30:35;-1.00;99.90
41882;DHT22;27562;47.524;12.404;2024-02-14T01:33:02;-1.00;99.90
41882;DHT22;27562;47.524;12.404;2024-02-14T01:35:29;-1.00;99.90
41882;DHT22;27562;47.524;12.404;2024-02-14T01:37:55;-1.00;99.90
41882;DHT22;27562;47.524;12.404;2024-02-14T01:40:21;-1.00;99.90
41882;DHT22;27562;47.524;12.404;2024-02-14T01:42:47;-1.00;99.90
41882;DHT22;27562;47.524;12.404;2024-02-14T01:45:13;-1.00;99.90
41882;DHT22;27562;47.524;12.404;2024-02-14T01:47:38;-1.00;99.90
41882;DHT22;27562;47.524;12.404;2024-02-14T01:50:08;-1.00;99.90
41882;DHT22;27562;47.524;12.404;2024-02-14T01:52:37;-1.00;99.90
41882;DHT22;27562;47.524;12.404;2024-02-14T01:55:04;-1.00;99.90
41882;DHT22;27562;47.524;12.404;2024-02-14T01:57:34;-0.90;99.90
41882;DHT22;27562;47.524;12.404;2024-02-14T02:00:03;-1.00;99.90
41882;DHT22;27562;47.524;12.404;2024-02-14T02:02:36;-1.00;99.90
41882;DHT22;27562;47.524;12.404;2024-02-14T02:05:03;-1.00;99.90
41882;DHT22;27562;47.524;12.404;2024-02-14T02:07:29;-1.00;99.90
41882;DHT22;27562;47.524;12.404;2024-02-14T02:09:59;-1.00;99.90
41882;DHT22;27562;47.524;12.404;2024-02-14T02:12:24;-1.00;99.90
41882;DHT22;27562;47.524;12.404;2024-02-14T02:14:53;-1.00;99.90
41882;DHT22;27562;47.524;12.404;2024-02-14T02:17:19;-1.10;99.90
41882;DHT22;27562;47.524;12.404;2024-02-14T02:19:44;-1.10;99.90
41882;DHT22;27562;47.524;12.404;2024-02-14T02:22:10;-1.10;99.90
41882;DHT22;27562;47.524;12.404;2024-02-14T02:24:36;-1.10;99.90
41882;DHT22;27562;47.524;12.404;2024-02-14T02:27:02;-1.10;99.90
41882;DHT22;27562;47.524;12.404;2024-02-14T02:29:28;-1.00;99.90
41882;DHT22;27562;47.524;12.404;2024-02-14T02:31:54;-1.00;99.90
41882;DHT22;27562;47.524;12.404;2024-02-14T02:34:20;-1.00;99.90
41882;DHT22;27562;47.524;12.404;2024-02-14T02:36:45;-1.00;99.90
41882;DHT22;27562;47.524;12.404;2024-02-14T02:39:14;-1.00;99.90
41882;DHT22;27562;47.524;12.404;2024-02-14T02:41:40;-1.00;99.90
41882;DHT22;27562;47.524;12.404;2024-02-14T02:44:05;-1.00;99.90
41882;DHT22;27562;47.524;12.404;2024-02-14T02:46:32;-1.00;99.90
41882;DHT22;27562;47.524;12.404;2024-02-14T02:48:58;-1.00;99.90
41882;DHT22;27562;47.524;12.404;2024-02-14T02:51:24;-1.00;99.90
41882;DHT22;27562;47.524;12.404;2024-02-14T02:53:50;-0.90;99.90
41882;DHT22;27562;47.524;12.404;2024-02-14T02:56:17;-0.90;99.90
41882;DHT22;27562;47.524;12.404;2024-02-14T02:58:44;-0.90;99.90
41882;DHT22;27562;47.524;12.404;2024-02-14T03:01:10;-0.90;99.90
41882;DHT22;27562;47.524;12.404;2024-02-14T03:03:37;-0.90;99.90
41882;DHT22;27562;47.524;12.404;2024-02-14T03:06:05;-0.80;99.90
41882;DHT22;27562;47.524;12.404;2024-02-14T03:08:31;-0.80;99.90
41882;DHT22;27562;47.524;12.404;2024-02-14T03:11:05;-0.80;99.90
41882;DHT22;27562;47.524;12.404;2024-02-14T03:13:31;-0.80;99.90
41882;DHT22;27562;47.524;12.404;2024-02-14T03:15:57;-0.80;99.90
41882;DHT22;27562;47.524;12.404;2024-02-14T03:18:24;-0.70;99.90
41882;DHT22;27562;47.524;12.404;2024-02-14T03:20:50;-0.80;99.90
41882;DHT22;27562;47.524;12.404;2024-02-14T03:23:16;-0.70;99.90
41882;DHT22;27562;47.524;12.404;2024-02-14T03:25:41;-0.80;99.90
41882;DHT22;27562;47.524;12.404;2024-02-14T03:28:08;-0.80;99.90
41882;DHT22;27562;47.524;12.404;2024-02-14T03:30:37;-0.70;99.90
41882;DHT22;27562;47.524;12.404;2024-02-14T03:33:05;-0.70;99.90
41882;DHT22;27562;47.524;12.404;2024-02-14T03:35:30;-0.70;99.90
41882;DHT22;27562;47.524;12.404;2024-02-14T03:37:56;-0.70;99.90
41882;DHT22;27562;47.524;12.404;2024-02-14T03:40:22;-0.70;99.90
41882;DHT22;27562;47.524;12.404;2024-02-14T03:42:48;-0.70;99.90
41882;DHT22;27562;47.524;12.404;2024-02-14T03:45:14;-0.70;99.90
41882;DHT22;27562;47.524;12.404;2024-02-14T03:47:40;-0.70;99.90
41882;DHT22;27562;47.524;12.404;2024-02-14T03:50:07;-0.70;99.90
41882;DHT22;27562;47.524;12.404;2024-02-14T03:52:33;-0.70;99.90
41882;DHT22;27562;47.524;12.404;2024-02-14T03:55:02;-0.70;99.90
41882;DHT22;27562;47.524;12.404;2024-02-14T03:57:28;-0.70;99.90
41882;DHT22;27562;47.524;12.404;2024-02-14T03:59:55;-0.70;99.90
41882;DHT22;27562;47.524;12.404;2024-02-14T04:02:22;-0.70;99.90
41882;DHT22;27562;47.524;12.404;2024-02-14T04:04:49;-0.70;99.90
41882;DHT22;27562;47.524;12.404;2024-02-14T04:07:15;-0.70;99.90
41882;DHT22;27562;47.524;12.404;2024-02-14T04:09:40;-0.70;99.90
41882;DHT22;27562;47.524;12.404;2024-02-14T04:12:06;-0.70;99.90
41882;DHT22;27562;47.524;12.404;2024-02-14T04:14:32;-0.70;99.90
41882;DHT22;27562;47.524;12.404;2024-02-14T04:16:58;-0.70;99.90
41882;DHT22;27562;47.524;12.404;2024-02-14T04:19:23;-0.70;99.90
41882;DHT22;27562;47.524;12.404;2024-02-14T04:21:49;-0.70;99.90
41882;DHT22;27562;47.524;12.404;2024-02-14T04:24:15;-0.70;99.90
41882;DHT22;27562;47.524;12.404;2024-02-14T04:26:41;-0.70;99.90
41882;DHT22;27562;47.524;12.404;2024-02-14T04:29:08;-0.70;99.90
41882;DHT22;27562;47.524;12.404;2024-02-14T04:31:34;-0.70;99.90
41882;DHT22;27562;47.524;12.404;2024-02-14T04:34:00;-0.70;99.90
41882;DHT22;27562;47.524;12.404;2024-02-14T04:36:26;-0.70;99.90
41882;DHT22;27562;47.524;12.404;2024-02-14T04:38:52;-0.80;99.90
41882;DHT22;27562;47.524;12.404;2024-02-14T04:41:18;-0.80;99.90
41882;DHT22;27562;47.524;12.404;2024-02-14T04:43:46;-0.80;99.90
41882;DHT22;27562;47.524;12.404;2024-02-14T04:46:13;-0.80;99.90
41882;DHT22;27562;47.524;12.404;2024-02-14T04:48:38;-0.80;99.90
41882;DHT22;27562;47.524;12.404;2024-02-14T04:51:05;-0.80;99.90
41882;DHT22;27562;47.524;12.404;2024-02-14T04:53:31;-0.90;99.90
41882;DHT22;27562;47.524;12.404;2024-02-14T04:55:57;-0.90;99.90
41882;DHT22;27562;47.524;12.404;2024-02-14T04:58:23;-0.90;99.90
41882;DHT22;27562;47.524;12.404;2024-02-14T05:00:49;-1.00;99.90
41882;DHT22;27562;47.524;12.404;2024-02-14T05:03:14;-0.90;99.90
41882;DHT22;27562;47.524;12.404;2024-02-14T05:05:41;-1.00;99.90
41882;DHT22;27562;47.524;12.404;2024-02-14T05:08:07;-1.00;99.90
41882;DHT22;27562;47.524;12.404;2024-02-14T05:10:32;-1.00;99.90
41882;DHT22;27562;47.524;12.404;2024-02-14T05:12:58;-1.00;99.90
41882;DHT22;27562;47.524;12.404;2024-02-14T05:15:24;-1.10;99.90
41882;DHT22;27562;47.524;12.404;2024-02-14T05:17:51;-1.10;99.90
41882;DHT22;27562;47.524;12.404;2024-02-14T05:20:17;-1.10;99.90
41882;DHT22;27562;47.524;12.404;2024-02-14T05:22:43;-1.00;99.90
41882;DHT22;27562;47.524;12.404;2024-02-14T05:25:09;-1.00;99.90
41882;DHT22;27562;47.524;12.404;2024-02-14T05:27:35;-1.10;99.90
41882;DHT22;27562;47.524;12.404;2024-02-14T05:30:01;-1.10;99.90
41882;DHT22;27562;47.524;12.404;2024-02-14T05:32:29;-1.10;99.90
41882;DHT22;27562;47.524;12.404;2024-02-14T05:34:54;-1.10;99.90
41882;DHT22;27562;47.524;12.404;2024-02-14T05:37:20;-1.20;99.90
41882;DHT22;27562;47.524;12.404;2024-02-14T05:39:46;-1.20;99.90
41882;DHT22;27562;47.524;12.404;2024-02-14T05:42:11;-1.20;99.90
41882;DHT22;27562;47.524;12.404;2024-02-14T05:44:37;-1.20;99.90
41882;DHT22;27562;47.524;12.404;2024-02-14T05:47:03;-1.20;99.90
41882;DHT22;27562;47.524;12.404;2024-02-14T05:49:28;-1.20;99.90
41882;DHT22;27562;47.524;12.404;2024-02-14T05:51:54;-1.30;99.90
41882;DHT22;27562;47.524;12.404;2024-02-14T05:54:20;-1.30;99.90
41882;DHT22;27562;47.524;12.404;2024-02-14T05:56:49;-1.30;99.90
41882;DHT22;27562;47.524;12.404;2024-02-14T05:59:14;-1.40;99.90
41882;DHT22;27562;47.524;12.404;2024-02-14T06:01:40;-1.40;99.90
41882;DHT22;27562;47.524;12.404;2024-02-14T06:04:05;-1.40;99.90
41882;DHT22;27562;47.524;12.404;2024-02-14T06:06:31;-1.40;99.90
41882;DHT22;27562;47.524;12.404;2024-02-14T06:08:57;-1.40;99.90
41882;DHT22;27562;47.524;12.404;2024-02-14T06:11:23;-1.40;99.90
41882;DHT22;27562;47.524;12.404;2024-02-14T06:13:48;-1.40;99.90
41882;DHT22;27562;47.524;12.404;2024-02-14T06:16:14;-1.40;99.90
41882;DHT22;27562;47.524;12.404;2024-02-14T06:18:40;-1.40;99.90
41882;DHT22;27562;47.524;12.404;2024-02-14T06:21:06;-1.40;99.90
41882;DHT22;27562;47.524;12.404;2024-02-14T06:23:32;-1.50;99.90
41882;DHT22;27562;47.524;12.404;2024-02-14T06:25:58;-1.50;99.90
41882;DHT22;27562;47.524;12.404;2024-02-14T06:28:24;-1.50;99.90
41882;DHT22;27562;47.524;12.404;2024-02-14T06:30:50;-1.50;99.90
41882;DHT22;27562;47.524;12.404;2024-02-14T06:33:15;-1.50;99.90
41882;DHT22;27562;47.524;12.404;2024-02-14T06:35:41;-1.50;99.90
41882;DHT22;27562;47.524;12.404;2024-02-14T06:38:07;-1.50;99.90
41882;DHT22;27562;47.524;12.404;2024-02-14T06:40:33;-1.50;99.90
41882;DHT22;27562;47.524;12.404;2024-02-14T06:42:59;-1.60;99.90
41882;DHT22;27562;47.524;12.404;2024-02-14T06:45:27;-1.60;99.90
41882;DHT22;27562;47.524;12.404;2024-02-14T06:47:53;-1.70;99.90
41882;DHT22;27562;47.524;12.404;2024-02-14T06:50:19;-1.70;99.90
41882;DHT22;27562;47.524;12.404;2024-02-14T06:52:45;-1.60;99.90
41882;DHT22;27562;47.524;12.404;2024-02-14T06:55:11;-1.70;99.90
41882;DHT22;27562;47.524;12.404;2024-02-14T06:57:38;-1.70;99.90
41882;DHT22;27562;47.524;12.404;2024-02-14T07:00:05;-1.80;99.90
41882;DHT22;27562;47.524;12.404;2024-02-14T07:02:32;-1.80;99.90
41882;DHT22;27562;47.524;12.404;2024-02-14T07:04:57;-1.80;99.90
41882;DHT22;27562;47.524;12.404;2024-02-14T07:07:23;-1.70;99.90
41882;DHT22;27562;47.524;12.404;2024-02-14T07:09:48;-1.70;99.90
41882;DHT22;27562;47.524;12.404;2024-02-14T07:12:14;-1.60;99.90
41882;DHT22;27562;47.524;12.404;2024-02-14T07:14:40;-1.50;99.90
41882;DHT22;27562;47.524;12.404;2024-02-14T07:17:06;-1.50;99.90
41882;DHT22;27562;47.524;12.404;2024-02-14T07:19:32;-1.40;99.90
41882;DHT22;27562;47.524;12.404;2024-02-14T07:21:58;-1.30;99.90
41882;DHT22;27562;47.524;12.404;2024-02-14T07:24:23;-1.30;99.90
41882;DHT22;27562;47.524;12.404;2024-02-14T07:26:49;-1.20;99.90
41882;DHT22;27562;47.524;12.404;2024-02-14T07:29:15;-1.20;99.90
41882;DHT22;27562;47.524;12.404;2024-02-14T07:31:40;-1.10;99.90
41882;DHT22;27562;47.524;12.404;2024-02-14T07:34:07;-1.00;99.90
41882;DHT22;27562;47.524;12.404;2024-02-14T07:36:32;-1.00;99.90
41882;DHT22;27562;47.524;12.404;2024-02-14T07:38:58;-1.00;99.90
41882;DHT22;27562;47.524;12.404;2024-02-14T07:41:24;-0.90;99.90
41882;DHT22;27562;47.524;12.404;2024-02-14T07:43:50;-0.90;99.90
41882;DHT22;27562;47.524;12.404;2024-02-14T07:46:19;-0.90;99.90
41882;DHT22;27562;47.524;12.404;2024-02-14T07:48:45;-0.80;99.90
41882;DHT22;27562;47.524;12.404;2024-02-14T07:51:12;-0.70;99.90
41882;DHT22;27562;47.524;12.404;2024-02-14T07:53:38;-0.70;99.90
41882;DHT22;27562;47.524;12.404;2024-02-14T07:56:03;-0.60;99.90
41882;DHT22;27562;47.524;12.404;2024-02-14T07:58:29;-0.60;99.90
41882;DHT22;27562;47.524;12.404;2024-02-14T08:00:55;-0.50;99.90
41882;DHT22;27562;47.524;12.404;2024-02-14T08:03:20;-0.50;99.90
41882;DHT22;27562;47.524;12.404;2024-02-14T08:05:46;-0.40;99.90
41882;DHT22;27562;47.524;12.404;2024-02-14T08:08:12;-0.40;99.90
41882;DHT22;27562;47.524;12.404;2024-02-14T08:10:37;-0.30;99.90
41882;DHT22;27562;47.524;12.404;2024-02-14T08:13:04;-0.30;99.90
41882;DHT22;27562;47.524;12.404;2024-02-14T08:15:30;-0.30;99.90
41882;DHT22;27562;47.524;12.404;2024-02-14T08:17:56;-0.20;99.90
41882;DHT22;27562;47.524;12.404;2024-02-14T08:20:22;-0.20;99.90
41882;DHT22;27562;47.524;12.404;2024-02-14T08:22:49;-0.10;99.90
41882;DHT22;27562;47.524;12.404;2024-02-14T08:25:15;-0.10;99.90
41882;DHT22;27562;47.524;12.404;2024-02-14T08:27:41;-0.10;99.90
41882;DHT22;27562;47.524;12.404;2024-02-14T08:30:07;0.00;99.90
41882;DHT22;27562;47.524;12.404;2024-02-14T08:32:34;0.10;99.90
41882;DHT22;27562;47.524;12.404;2024-02-14T08:35:00;0.10;99.90
41882;DHT22;27562;47.524;12.404;2024-02-14T08:37:27;0.10;99.90
41882;DHT22;27562;47.524;12.404;2024-02-14T08:39:52;0.20;99.90
41882;DHT22;27562;47.524;12.404;2024-02-14T08:42:18;0.20;99.90
41882;DHT22;27562;47.524;12.404;2024-02-14T08:44:44;0.30;99.90
41882;DHT22;27562;47.524;12.404;2024-02-14T08:47:10;0.30;99.90
41882;DHT22;27562;47.524;12.404;2024-02-14T08:49:36;0.40;99.90
41882;DHT22;27562;47.524;12.404;2024-02-14T08:52:05;0.40;99.90
41882;DHT22;27562;47.524;12.404;2024-02-14T08:54:31;0.50;99.90
41882;DHT22;27562;47.524;12.404;2024-02-14T08:56:58;0.50;99.90
41882;DHT22;27562;47.524;12.404;2024-02-14T08:59:24;0.60;99.90
41882;DHT22;27562;47.524;12.404;2024-02-14T09:01:50;0.60;99.90
41882;DHT22;27562;47.524;12.404;2024-02-14T09:04:16;0.70;99.90
41882;DHT22;27562;47.524;12.404;2024-02-14T09:06:41;0.80;99.90
41882;DHT22;27562;47.524;12.404;2024-02-14T09:09:07;0.80;99.90
41882;DHT22;27562;47.524;12.404;2024-02-14T09:11:35;0.90;99.90
41882;DHT22;27562;47.524;12.404;2024-02-14T09:14:02;0.90;99.90
41882;DHT22;27562;47.524;12.404;2024-02-14T09:16:30;1.00;99.90
41882;DHT22;27562;47.524;12.404;2024-02-14T09:18:56;1.10;99.90
41882;DHT22;27562;47.524;12.404;2024-02-14T09:21:22;1.10;99.90
41882;DHT22;27562;47.524;12.404;2024-02-14T09:23:48;1.20;99.90
41882;DHT22;27562;47.524;12.404;2024-02-14T09:26:13;1.20;99.90
41882;DHT22;27562;47.524;12.404;2024-02-14T09:28:43;1.30;99.90
41882;DHT22;27562;47.524;12.404;2024-02-14T09:31:08;1.40;99.90
41882;DHT22;27562;47.524;12.404;2024-02-14T09:33:37;1.50;99.90
41882;DHT22;27562;47.524;12.404;2024-02-14T09:36:03;1.60;99.90
41882;DHT22;27562;47.524;12.404;2024-02-14T09:38:30;1.60;99.90
41882;DHT22;27562;47.524;12.404;2024-02-14T09:41:11;1.70;99.90
41882;DHT22;27562;47.524;12.404;2024-02-14T09:43:43;1.70;99.90
41882;DHT22;27562;47.524;12.404;2024-02-14T09:46:12;1.70;99.90
41882;DHT22;27562;47.524;12.404;2024-02-14T09:48:48;1.80;99.90
41882;DHT22;27562;47.524;12.404;2024-02-14T09:51:14;1.80;99.90
41882;DHT22;27562;47.524;12.404;2024-02-14T09:53:41;1.80;99.90
41882;DHT22;27562;47.524;12.404;2024-02-14T09:56:09;1.80;99.90
41882;DHT22;27562;47.524;12.404;2024-02-14T09:58:36;1.90;99.90
41882;DHT22;27562;47.524;12.404;2024-02-14T10:01:02;2.00;99.90
41882;DHT22;27562;47.524;12.404;2024-02-14T10:03:27;2.00;99.90
41882;DHT22;27562;47.524;12.404;2024-02-14T10:05:53;2.10;99.90
41882;DHT22;27562;47.524;12.404;2024-02-14T10:08:19;2.20;99.90
41882;DHT22;27562;47.524;12.404;2024-02-14T10:10:49;2.20;99.90
41882;DHT22;27562;47.524;12.404;2024-02-14T10:13:15;2.30;99.90
41882;DHT22;27562;47.524;12.404;2024-02-14T10:15:41;2.40;99.90
41882;DHT22;27562;47.524;12.404;2024-02-14T10:18:07;2.40;99.90
41882;DHT22;27562;47.524;12.404;2024-02-14T10:20:35;2.50;99.90
41882;DHT22;27562;47.524;12.404;2024-02-14T10:23:07;2.60;99.90
41882;DHT22;27562;47.524;12.404;2024-02-14T10:25:37;2.60;99.90
41882;DHT22;27562;47.524;12.404;2024-02-14T10:28:07;2.70;99.90
41882;DHT22;27562;47.524;12.404;2024-02-14T10:30:35;2.70;99.90
41882;DHT22;27562;47.524;12.404;2024-02-14T10:33:03;2.70;99.90
41882;DHT22;27562;47.524;12.404;2024-02-14T10:35:30;2.80;99.90
41882;DHT22;27562;47.524;12.404;2024-02-14T10:38:00;2.80;99.90
41882;DHT22;27562;47.524;12.404;2024-02-14T10:40:28;2.90;99.90
41882;DHT22;27562;47.524;12.404;2024-02-14T10:42:55;2.90;99.90
41882;DHT22;27562;47.524;12.404;2024-02-14T10:45:22;2.90;99.90
41882;DHT22;27562;47.524;12.404;2024-02-14T10:47:51;3.00;99.90
41882;DHT22;27562;47.524;12.404;2024-02-14T10:50:17;3.10;99.90
41882;DHT22;27562;47.524;12.404;2024-02-14T10:52:44;3.10;99.90
41882;DHT22;27562;47.524;12.404;2024-02-14T10:55:11;3.20;99.90
41882;DHT22;27562;47.524;12.404;2024-02-14T10:57:38;3.30;99.90
41882;DHT22;27562;47.524;12.404;2024-02-14T11:00:09;3.40;99.90
41882;DHT22;27562;47.524;12.404;2024-02-14T11:02:36;3.50;99.90
41882;DHT22;27562;47.524;12.404;2024-02-14T11:05:03;3.50;99.90
41882;DHT22;27562;47.524;12.404;2024-02-14T11:07:29;3.60;99.90
41882;DHT22;27562;47.524;12.404;2024-02-14T11:10:09;3.70;99.90
41882;DHT22;27562;47.524;12.404;2024-02-14T11:12:35;3.70;99.90
41882;DHT22;27562;47.524;12.404;2024-02-14T11:15:19;3.70;99.90
41882;DHT22;27562;47.524;12.404;2024-02-14T11:17:46;3.70;99.90
41882;DHT22;27562;47.524;12.404;2024-02-14T11:20:31;3.70;99.90
41882;DHT22;27562;47.524;12.404;2024-02-14T11:23:04;3.70;99.90
41882;DHT22;27562;47.524;12.404;2024-02-14T11:25:37;3.70;99.90
41882;DHT22;27562;47.524;12.404;2024-02-14T11:28:36;3.80;99.90
41882;DHT22;27562;47.524;12.404;2024-02-14T11:31:02;3.80;99.90
41882;DHT22;27562;47.524;12.404;2024-02-14T11:33:29;3.80;99.90
41882;DHT22;27562;47.524;12.404;2024-02-14T11:35:55;3.90;99.90
41882;DHT22;27562;47.524;12.404;2024-02-14T11:38:23;4.00;99.90
41882;DHT22;27562;47.524;12.404;2024-02-14T11:40:51;4.10;99.90
41882;DHT22;27562;47.524;12.404;2024-02-14T11:43:20;4.20;99.90
41882;DHT22;27562;47.524;12.404;2024-02-14T11:45:46;4.30;99.90
41882;DHT22;27562;47.524;12.404;2024-02-14T11:48:16;4.50;99.90
41882;DHT22;27562;47.524;12.404;2024-02-14T11:50:50;4.60;99.90
41882;DHT22;27562;47.524;12.404;2024-02-14T11:53:17;4.70;99.90
41882;DHT22;27562;47.524;12.404;2024-02-14T11:55:44;4.70;99.90
41882;DHT22;27562;47.524;12.404;2024-02-14T11:58:13;4.80;99.90
41882;DHT22;27562;47.524;12.404;2024-02-14T12:00:43;4.90;99.90
41882;DHT22;27562;47.524;12.404;2024-02-14T12:03:15;5.00;99.90
41882;DHT22;27562;47.524;12.404;2024-02-14T12:05:42;5.00;99.90
41882;DHT22;27562;47.524;12.404;2024-02-14T12:08:11;5.10;99.90
41882;DHT22;27562;47.524;12.404;2024-02-14T12:10:37;5.10;99.90
41882;DHT22;27562;47.524;12.404;2024-02-14T12:13:12;5.10;99.90
41882;DHT22;27562;47.524;12.404;2024-02-14T12:15:46;5.10;99.90
41882;DHT22;27562;47.524;12.404;2024-02-14T12:18:12;5.20;99.90
41882;DHT22;27562;47.524;12.404;2024-02-14T12:20:39;5.20;99.90
41882;DHT22;27562;47.524;12.404;2024-02-14T12:23:05;5.20;99.90
41882;DHT22;27562;47.524;12.404;2024-02-14T12:25:31;5.30;99.90
41882;DHT22;27562;47.524;12.404;2024-02-14T12:27:58;5.30;99.90
41882;DHT22;27562;47.524;12.404;2024-02-14T12:30:43;5.30;99.90
41882;DHT22;27562;47.524;12.404;2024-02-14T12:33:13;5.40;99.90
41882;DHT22;27562;47.524;12.404;2024-02-14T12:35:46;5.50;99.90
41882;DHT22;27562;47.524;12.404;2024-02-14T12:38:13;5.60;99.90
41882;DHT22;27562;47.524;12.404;2024-02-14T12:40:40;5.60;99.90
41882;DHT22;27562;47.524;12.404;2024-02-14T12:43:13;5.70;99.90
41882;DHT22;27562;47.524;12.404;2024-02-14T12:45:40;5.70;99.90
41882;DHT22;27562;47.524;12.404;2024-02-14T12:48:07;5.80;99.90
41882;DHT22;27562;47.524;12.404;2024-02-14T12:50:36;5.80;99.90
41882;DHT22;27562;47.524;12.404;2024-02-14T12:53:10;5.90;99.90
41882;DHT22;27562;47.524;12.404;2024-02-14T12:55:35;6.00;99.90
41882;DHT22;27562;47.524;12.404;2024-02-14T12:58:01;6.00;99.90
41882;DHT22;27562;47.524;12.404;2024-02-14T13:00:27;6.10;99.90
41882;DHT22;27562;47.524;12.404;2024-02-14T13:02:54;6.20;99.90
41882;DHT22;27562;47.524;12.404;2024-02-14T13:05:20;6.30;99.90
41882;DHT22;27562;47.524;12.404;2024-02-14T13:07:46;6.40;99.90
41882;DHT22;27562;47.524;12.404;2024-02-14T13:10:12;6.40;99.90
41882;DHT22;27562;47.524;12.404;2024-02-14T13:12:38;6.40;99.90
41882;DHT22;27562;47.524;12.404;2024-02-14T13:15:05;6.40;99.90
41882;DHT22;27562;47.524;12.404;2024-02-14T13:17:31;6.40;99.90
41882;DHT22;27562;47.524;12.404;2024-02-14T13:19:56;6.30;99.90
41882;DHT22;27562;47.524;12.404;2024-02-14T13:22:22;6.40;99.90
41882;DHT22;27562;47.524;12.404;2024-02-14T13:24:49;6.40;99.90
41882;DHT22;27562;47.524;12.404;2024-02-14T13:27:14;6.40;99.90
41882;DHT22;27562;47.524;12.404;2024-02-14T13:29:40;6.50;99.90
41882;DHT22;27562;47.524;12.404;2024-02-14T13:32:06;6.60;99.90
41882;DHT22;27562;47.524;12.404;2024-02-14T13:34:33;6.60;99.90
41882;DHT22;27562;47.524;12.404;2024-02-14T13:36:59;6.70;99.90
41882;DHT22;27562;47.524;12.404;2024-02-14T13:39:25;6.80;99.90
41882;DHT22;27562;47.524;12.404;2024-02-14T13:41:51;6.80;99.90
41882;DHT22;27562;47.524;12.404;2024-02-14T13:44:17;6.90;99.90
41882;DHT22;27562;47.524;12.404;2024-02-14T13:46:44;7.20;99.90
41882;DHT22;27562;47.524;12.404;2024-02-14T13:49:15;7.30;99.90
41882;DHT22;27562;47.524;12.404;2024-02-14T13:51:50;7.50;99.90
41882;DHT22;27562;47.524;12.404;2024-02-14T13:54:20;7.70;99.90
41882;DHT22;27562;47.524;12.404;2024-02-14T13:56:46;7.80;99.90
41882;DHT22;27562;47.524;12.404;2024-02-14T13:59:14;7.80;99.90
41882;DHT22;27562;47.524;12.404;2024-02-14T14:01:40;7.80;99.90
41882;DHT22;27562;47.524;12.404;2024-02-14T14:04:06;7.70;99.90
41882;DHT22;27562;47.524;12.404;2024-02-14T14:06:32;7.70;99.90
41882;DHT22;27562;47.524;12.404;2024-02-14T14:08:57;7.60;99.90
41882;DHT22;27562;47.524;12.404;2024-02-14T14:11:24;7.60;99.90
41882;DHT22;27562;47.524;12.404;2024-02-14T14:13:50;7.60;99.90
41882;DHT22;27562;47.524;12.404;2024-02-14T14:16:16;7.60;99.90
41882;DHT22;27562;47.524;12.404;2024-02-14T14:18:42;7.60;99.90
41882;DHT22;27562;47.524;12.404;2024-02-14T14:21:08;7.80;99.90
41882;DHT22;27562;47.524;12.404;2024-02-14T14:23:34;8.00;99.90
41882;DHT22;27562;47.524;12.404;2024-02-14T14:26:00;8.10;99.90
41882;DHT22;27562;47.524;12.404;2024-02-14T14:28:26;8.20;99.90
41882;DHT22;27562;47.524;12.404;2024-02-14T14:30:53;8.10;99.90
41882;DHT22;27562;47.524;12.404;2024-02-14T14:33:20;8.10;99.90
41882;DHT22;27562;47.524;12.404;2024-02-14T14:35:46;8.00;99.90
41882;DHT22;27562;47.524;12.404;2024-02-14T14:38:14;8.00;99.90
41882;DHT22;27562;47.524;12.404;2024-02-14T14:40:40;7.90;99.90
41882;DHT22;27562;47.524;12.404;2024-02-14T14:43:06;7.80;99.90
41882;DHT22;27562;47.524;12.404;2024-02-14T14:45:33;7.80;99.90
41882;DHT22;27562;47.524;12.404;2024-02-14T14:47:58;7.80;99.90
41882;DHT22;27562;47.524;12.404;2024-02-14T14:50:24;7.80;99.90
41882;DHT22;27562;47.524;12.404;2024-02-14T14:52:51;7.70;99.90
41882;DHT22;27562;47.524;12.404;2024-02-14T14:55:18;7.70;99.90
41882;DHT22;27562;47.524;12.404;2024-02-14T14:57:44;7.70;99.90
41882;DHT22;27562;47.524;12.404;2024-02-14T15:00:10;7.70;99.90
41882;DHT22;27562;47.524;12.404;2024-02-14T15:02:40;7.70;99.90
41882;DHT22;27562;47.524;12.404;2024-02-14T15:05:09;7.60;99.90
41882;DHT22;27562;47.524;12.404;2024-02-14T15:07:34;7.60;99.90
41882;DHT22;27562;47.524;12.404;2024-02-14T15:10:00;7.60;99.90
41882;DHT22;27562;47.524;12.404;2024-02-14T15:12:26;7.60;99.90
41882;DHT22;27562;47.524;12.404;2024-02-14T15:14:52;7.50;99.90
41882;DHT22;27562;47.524;12.404;2024-02-14T15:17:19;7.50;99.90
41882;DHT22;27562;47.524;12.404;2024-02-14T15:19:45;7.50;99.90